Time;durP1;ratioP1;P1;durP2;ratioP2;P2;SDS_P1;SDS_P2;PMS_P1;PMS_P2;Temp;Humidity;BMP_temperature;BMP_pressure;BME280_temperature;BME280_humidity;BME280_pressure;Samples;Min_cycle;Max_cycle;Signal;HPM_P1;HPM_P2
2021/08/14 00:01:50;;;;;;;11.85;5.25;;;;;;;;;;5051267;28;20209;-71
2021/08/14 00:04:16;;;;;;;15.07;6.32;;;;;;;;;;5048876;28;20181;-71
2021/08/14 00:06:41;;;;;;;16.67;5.80;;;;;;;;;;5051003;28;20635;-71
2021/08/14 00:09:06;;;;;;;21.60;7.80;;;;;;;;;;5049008;28;20429;-70
2021/08/14 00:11:31;;;;;;;17.33;6.45;;;;;;;;;;5046563;28;20957;-71
2021/08/14 00:13:56;;;;;;;16.08;6.15;;;;;;;;;;5049627;28;20174;-70
2021/08/14 00:16:21;;;;;;;17.67;7.43;;;;;;;;;;5047686;28;20659;-71
2021/08/14 00:18:47;;;;;;;21.40;6.95;;;;;;;;;;5046929;28;20639;-70
2021/08/14 00:21:12;;;;;;;16.25;6.18;;;;;;;;;;5049145;28;20186;-71
2021/08/14 00:23:38;;;;;;;25.95;7.32;;;;;;;;;;5049003;28;20324;-71
2021/08/14 00:26:03;;;;;;;12.57;5.40;;;;;;;;;;5050517;28;20639;-68
2021/08/14 00:28:28;;;;;;;15.30;6.78;;;;;;;;;;5044917;28;20192;-71
2021/08/14 00:30:53;;;;;;;15.35;5.97;;;;;;;;;;5045639;28;20639;-70
2021/08/14 00:33:18;;;;;;;15.38;6.70;;;;;;;;;;5048441;28;20178;-70
2021/08/14 00:35:43;;;;;;;18.05;6.20;;;;;;;;;;5048800;28;20194;-71
2021/08/14 00:38:09;;;;;;;16.47;6.10;;;;;;;;;;5049656;28;20525;-71
2021/08/14 00:40:34;;;;;;;15.18;5.65;;;;;;;;;;5048604;28;20406;-71
2021/08/14 00:43:00;;;;;;;19.15;7.15;;;;;;;;;;5050828;28;20193;-70
2021/08/14 00:45:26;;;;;;;16.33;6.07;;;;;;;;;;5048091;28;20261;-70
2021/08/14 00:47:51;;;;;;;18.20;7.17;;;;;;;;;;5050823;28;20320;-71
2021/08/14 00:50:17;;;;;;;20.73;7.13;;;;;;;;;;5048638;28;20908;-71
2021/08/14 00:52:42;;;;;;;18.65;6.88;;;;;;;;;;5042737;28;20220;-71
2021/08/14 00:55:07;;;;;;;16.60;6.60;;;;;;;;;;5049206;28;20193;-72
2021/08/14 00:57:33;;;;;;;12.23;6.25;;;;;;;;;;5046582;28;20197;-71
2021/08/14 00:59:59;;;;;;;13.13;6.40;;;;;;;;;;5052843;28;20576;-71
2021/08/14 01:02:24;;;;;;;14.85;6.50;;;;;;;;;;5052179;28;20197;-70
2021/08/14 01:04:50;;;;;;;15.95;7.47;;;;;;;;;;5047458;28;20253;-70
2021/08/14 01:07:16;;;;;;;20.50;7.28;;;;;;;;;;5051218;28;20263;-70
2021/08/14 01:09:41;;;;;;;22.27;7.72;;;;;;;;;;5054342;28;20204;-70
2021/08/14 01:12:07;;;;;;;18.20;7.53;;;;;;;;;;5052328;28;20664;-71
2021/08/14 01:14:32;;;;;;;17.75;7.75;;;;;;;;;;5032682;28;20252;-71
2021/08/14 01:16:58;;;;;;;17.05;7.07;;;;;;;;;;5048808;28;20178;-71
2021/08/14 01:19:24;;;;;;;16.63;6.95;;;;;;;;;;5051195;28;20301;-71
2021/08/14 01:21:50;;;;;;;17.30;7.10;;;;;;;;;;5054017;28;20289;-71
2021/08/14 01:24:15;;;;;;;16.15;7.80;;;;;;;;;;5051976;28;20178;-71
2021/08/14 01:26:41;;;;;;;18.05;7.18;;;;;;;;;;5053730;28;20169;-71
2021/08/14 01:29:07;;;;;;;18.60;6.97;;;;;;;;;;5041508;28;20264;-71
2021/08/14 01:31:32;;;;;;;19.27;7.70;;;;;;;;;;5052845;28;20208;-72
2021/08/14 01:33:57;;;;;;;16.25;7.15;;;;;;;;;;5050813;28;20169;-71
2021/08/14 01:36:23;;;;;;;18.23;7.57;;;;;;;;;;5053858;28;20182;-71
2021/08/14 01:38:52;;;;;;;17.75;7.47;;;;;;;;;;5051562;28;20475;-71
2021/08/14 01:41:18;;;;;;;18.70;7.47;;;;;;;;;;5051025;28;20178;-71
2021/08/14 01:44:02;;;;;;;22.05;7.93;;;;;;;;;;5052212;28;20205;-71
2021/08/14 01:46:32;;;;;;;14.48;7.18;;;;;;;;;;5039621;28;20682;-71
2021/08/14 01:48:57;;;;;;;26.02;9.02;;;;;;;;;;5041675;28;20202;-72
2021/08/14 01:51:22;;;;;;;23.30;8.10;;;;;;;;;;5050560;28;20178;-71
2021/08/14 01:53:51;;;;;;;18.77;8.93;;;;;;;;;;5053868;28;20174;-70
2021/08/14 01:56:17;;;;;;;22.77;7.97;;;;;;;;;;5050432;28;20174;-71
2021/08/14 01:58:43;;;;;;;20.65;7.60;;;;;;;;;;5033631;28;20200;-69
2021/08/14 02:01:09;;;;;;;16.67;8.10;;;;;;;;;;5052436;28;20615;-71
2021/08/14 02:03:34;;;;;;;19.02;8.65;;;;;;;;;;5045541;28;20229;-71
2021/08/14 02:05:59;;;;;;;18.75;7.65;;;;;;;;;;5053143;28;20232;-70
2021/08/14 02:08:24;;;;;;;17.90;9.02;;;;;;;;;;5032015;28;20212;-71
2021/08/14 02:10:50;;;;;;;19.43;8.33;;;;;;;;;;5052089;28;20498;-70
2021/08/14 02:13:15;;;;;;;19.30;8.90;;;;;;;;;;5050694;28;20410;-70
2021/08/14 02:15:40;;;;;;;20.00;8.60;;;;;;;;;;5052459;28;20983;-70
2021/08/14 02:18:05;;;;;;;18.65;7.47;;;;;;;;;;5066422;22;20549;-68
2021/08/14 02:20:30;;;;;;;17.27;7.33;;;;;;;;;;5034538;28;20612;-68
2021/08/14 02:22:56;;;;;;;19.05;8.73;;;;;;;;;;5063507;28;20458;-67
2021/08/14 02:25:21;;;;;;;16.50;7.90;;;;;;;;;;5059500;28;20174;-68
2021/08/14 02:27:46;;;;;;;18.40;8.07;;;;;;;;;;5035775;28;20399;-69
2021/08/14 02:30:12;;;;;;;23.00;8.77;;;;;;;;;;5048881;28;20484;-68
2021/08/14 02:32:37;;;;;;;17.52;8.38;;;;;;;;;;5053028;28;20436;-69
2021/08/14 02:35:03;;;;;;;16.98;7.60;;;;;;;;;;5053028;28;20260;-69
2021/08/14 02:37:28;;;;;;;22.08;9.65;;;;;;;;;;5052747;28;20264;-69
2021/08/14 02:39:54;;;;;;;21.23;9.35;;;;;;;;;;5052802;28;20707;-69
2021/08/14 02:42:19;;;;;;;24.88;9.25;;;;;;;;;;5052437;28;20255;-68
2021/08/14 02:44:44;;;;;;;17.92;9.48;;;;;;;;;;5052999;28;20181;-68
2021/08/14 02:47:09;;;;;;;15.10;8.25;;;;;;;;;;5052631;28;20211;-69
2021/08/14 02:49:34;;;;;;;15.00;8.13;;;;;;;;;;5052319;28;20209;-68
2021/08/14 02:51:59;;;;;;;18.77;7.93;;;;;;;;;;5052816;28;20407;-68
2021/08/14 02:54:24;;;;;;;21.48;8.25;;;;;;;;;;5034727;28;20413;-69
2021/08/14 02:56:50;;;;;;;23.52;9.07;;;;;;;;;;5052552;28;20583;-69
2021/08/14 02:59:15;;;;;;;18.77;8.17;;;;;;;;;;5051977;28;20201;-68
2021/08/14 03:01:40;;;;;;;22.05;10.05;;;;;;;;;;5052140;28;20494;-68
2021/08/14 03:04:05;;;;;;;26.00;8.48;;;;;;;;;;5034450;28;20174;-68
2021/08/14 03:06:30;;;;;;;19.88;8.20;;;;;;;;;;5052564;28;20220;-69
2021/08/14 03:08:56;;;;;;;16.85;8.13;;;;;;;;;;5052215;28;20644;-68
2021/08/14 03:11:21;;;;;;;26.35;8.25;;;;;;;;;;5034236;28;20174;-68
2021/08/14 03:13:46;;;;;;;21.13;8.15;;;;;;;;;;5052198;28;20223;-68
2021/08/14 03:16:12;;;;;;;19.13;7.80;;;;;;;;;;5052163;28;20181;-69
2021/08/14 03:18:37;;;;;;;14.68;6.78;;;;;;;;;;5051580;28;20596;-68
2021/08/14 03:21:02;;;;;;;19.90;8.07;;;;;;;;;;5052008;28;20643;-69
2021/08/14 03:23:27;;;;;;;19.90;8.55;;;;;;;;;;5051558;28;20511;-69
2021/08/14 03:25:52;;;;;;;19.42;8.30;;;;;;;;;;5052082;28;20256;-68
2021/08/14 03:28:18;;;;;;;19.33;6.87;;;;;;;;;;5051825;28;20232;-68
2021/08/14 03:30:43;;;;;;;18.67;7.10;;;;;;;;;;5048048;28;20427;-68
2021/08/14 03:33:08;;;;;;;15.90;7.33;;;;;;;;;;5051922;28;20564;-68
2021/08/14 03:35:34;;;;;;;17.10;7.82;;;;;;;;;;5036201;28;20403;-68
2021/08/14 03:37:59;;;;;;;20.13;8.68;;;;;;;;;;5054565;28;20197;-68
2021/08/14 03:40:24;;;;;;;20.40;7.82;;;;;;;;;;5054430;28;20178;-68
2021/08/14 03:42:49;;;;;;;19.33;8.15;;;;;;;;;;5051947;28;20743;-68
2021/08/14 03:45:14;;;;;;;19.02;8.32;;;;;;;;;;5052001;28;20195;-68
2021/08/14 03:47:40;;;;;;;17.90;8.13;;;;;;;;;;5052367;28;20190;-69
2021/08/14 03:50:06;;;;;;;14.77;7.30;;;;;;;;;;5051012;28;20252;-68
2021/08/14 03:52:32;;;;;;;20.50;8.13;;;;;;;;;;5033813;28;20178;-68
2021/08/14 03:54:57;;;;;;;14.25;7.30;;;;;;;;;;5051281;28;20561;-68
2021/08/14 03:57:22;;;;;;;16.92;7.90;;;;;;;;;;5033761;28;20185;-68
2021/08/14 03:59:47;;;;;;;13.80;6.82;;;;;;;;;;5050933;28;20201;-69
2021/08/14 04:02:13;;;;;;;17.65;7.03;;;;;;;;;;5051297;28;20217;-69
2021/08/14 04:04:38;;;;;;;13.98;7.35;;;;;;;;;;5051406;28;20561;-68
2021/08/14 04:07:03;;;;;;;16.20;7.85;;;;;;;;;;5051230;28;20177;-68
2021/08/14 04:09:28;;;;;;;15.20;7.53;;;;;;;;;;5050978;28;20193;-69
2021/08/14 04:11:54;;;;;;;16.17;7.40;;;;;;;;;;5051270;28;20170;-68
2021/08/14 04:14:19;;;;;;;12.90;6.80;;;;;;;;;;5051118;28;20184;-68
2021/08/14 04:16:44;;;;;;;25.70;7.28;;;;;;;;;;5051233;28;20188;-68
2021/08/14 04:19:10;;;;;;;20.60;8.33;;;;;;;;;;5050519;28;20216;-68
2021/08/14 04:21:35;;;;;;;15.40;7.00;;;;;;;;;;5051046;28;20498;-68
2021/08/14 04:24:00;;;;;;;9.60;6.22;;;;;;;;;;5051081;28;20213;-69
2021/08/14 04:26:28;;;;;;;17.13;7.13;;;;;;;;;;5050999;28;20220;-68
2021/08/14 04:28:54;;;;;;;14.10;6.57;;;;;;;;;;5047365;28;20427;-69
2021/08/14 04:31:19;;;;;;;13.90;6.55;;;;;;;;;;5050679;28;20498;-68
2021/08/14 04:33:44;;;;;;;17.65;6.53;;;;;;;;;;5052123;28;20646;-68
2021/08/14 04:36:09;;;;;;;14.60;6.87;;;;;;;;;;5055455;28;20217;-69
2021/08/14 04:38:34;;;;;;;12.98;6.53;;;;;;;;;;5054956;28;20782;-69
2021/08/14 04:41:00;;;;;;;17.13;6.45;;;;;;;;;;5055123;28;20173;-69
2021/08/14 04:43:25;;;;;;;21.73;6.85;;;;;;;;;;5054924;28;20224;-68
2021/08/14 04:45:50;;;;;;;14.98;6.90;;;;;;;;;;5037137;28;20704;-69
2021/08/14 04:48:15;;;;;;;15.18;6.13;;;;;;;;;;5036912;28;20194;-68
2021/08/14 04:50:40;;;;;;;17.88;7.18;;;;;;;;;;5054655;28;20174;-68
2021/08/14 04:53:06;;;;;;;12.02;5.97;;;;;;;;;;5055011;28;20228;-69
2021/08/14 04:55:31;;;;;;;16.40;6.78;;;;;;;;;;5054803;28;20177;-68
2021/08/14 04:57:56;;;;;;;22.52;7.55;;;;;;;;;;5054672;28;20744;-68
2021/08/14 05:00:21;;;;;;;21.27;8.02;;;;;;;;;;5054399;28;20185;-67
2021/08/14 05:02:46;;;;;;;14.40;6.10;;;;;;;;;;5054641;28;20241;-68
2021/08/14 05:05:12;;;;;;;17.95;7.43;;;;;;;;;;5054482;28;20417;-67
2021/08/14 05:07:37;;;;;;;16.92;7.95;;;;;;;;;;5054708;28;20607;-70
2021/08/14 05:10:03;;;;;;;19.40;7.78;;;;;;;;;;5054177;28;20243;-67
2021/08/14 05:12:28;;;;;;;18.35;7.38;;;;;;;;;;5054600;28;20206;-68
2021/08/14 05:14:53;;;;;;;16.73;6.85;;;;;;;;;;5054359;28;20182;-68
2021/08/14 05:17:18;;;;;;;15.52;7.18;;;;;;;;;;5054470;28;20209;-68
2021/08/14 05:19:43;;;;;;;18.07;7.20;;;;;;;;;;5053825;28;20617;-68
2021/08/14 05:22:08;;;;;;;22.02;7.85;;;;;;;;;;5054233;28;20462;-68
2021/08/14 05:24:34;;;;;;;15.73;6.72;;;;;;;;;;5054351;28;20632;-68
2021/08/14 05:26:59;;;;;;;15.98;8.30;;;;;;;;;;5054316;28;20588;-68
2021/08/14 05:29:24;;;;;;;19.30;8.60;;;;;;;;;;5053480;28;20758;-68
2021/08/14 05:31:49;;;;;;;17.50;7.75;;;;;;;;;;5036315;28;20174;-68
2021/08/14 05:34:14;;;;;;;18.63;7.93;;;;;;;;;;5054032;28;20227;-68
2021/08/14 05:36:39;;;;;;;18.23;7.33;;;;;;;;;;5054235;28;20557;-68
2021/08/14 05:39:05;;;;;;;18.65;7.95;;;;;;;;;;5035548;28;20418;-68
2021/08/14 05:41:31;;;;;;;18.08;7.25;;;;;;;;;;5054042;28;20552;-68
2021/08/14 05:43:56;;;;;;;14.90;8.23;;;;;;;;;;5035640;28;20208;-68
2021/08/14 05:46:21;;;;;;;18.27;8.68;;;;;;;;;;5053736;28;20174;-68
2021/08/14 05:48:46;;;;;;;21.07;9.17;;;;;;;;;;5053087;28;20205;-68
2021/08/14 05:51:12;;;;;;;21.83;8.60;;;;;;;;;;5053720;28;20437;-68
2021/08/14 05:53:38;;;;;;;21.33;10.52;;;;;;;;;;5053885;28;20671;-67
2021/08/14 05:56:03;;;;;;;20.77;9.18;;;;;;;;;;5053567;28;20185;-67
2021/08/14 05:58:28;;;;;;;19.52;7.95;;;;;;;;;;5053399;28;20205;-69
2021/08/14 06:00:53;;;;;;;31.33;9.90;;;;;;;;;;5053609;28;20181;-69
2021/08/14 06:03:19;;;;;;;26.37;8.73;;;;;;;;;;5053493;28;20462;-69
2021/08/14 06:05:44;;;;;;;19.27;8.60;;;;;;;;;;5053527;28;20402;-69
2021/08/14 06:08:09;;;;;;;22.92;9.88;;;;;;;;;;5053347;28;20201;-70
2021/08/14 06:10:34;;;;;;;18.97;8.93;;;;;;;;;;5053216;28;20476;-70
2021/08/14 06:13:00;;;;;;;26.83;9.07;;;;;;;;;;5053883;28;20442;-69
2021/08/14 06:15:25;;;;;;;22.27;8.95;;;;;;;;;;5053193;28;20178;-70
2021/08/14 06:17:50;;;;;;;20.57;9.23;;;;;;;;;;5053048;28;20208;-70
2021/08/14 06:20:16;;;;;;;28.07;10.70;;;;;;;;;;5052717;28;20881;-69
2021/08/14 06:22:42;;;;;;;25.63;10.68;;;;;;;;;;5053229;28;20454;-69
2021/08/14 06:25:07;;;;;;;29.92;12.00;;;;;;;;;;5053079;28;20224;-70
2021/08/14 06:27:33;;;;;;;29.00;12.15;;;;;;;;;;5053110;28;20192;-70
2021/08/14 06:29:58;;;;;;;26.98;11.52;;;;;;;;;;5031278;28;20185;-70
2021/08/14 06:32:23;;;;;;;34.03;13.10;;;;;;;;;;5053044;28;20180;-69
2021/08/14 06:34:48;;;;;;;30.00;13.40;;;;;;;;;;5052845;28;20181;-69
2021/08/14 06:37:14;;;;;;;29.63;12.17;;;;;;;;;;5052907;28;20260;-67
2021/08/14 06:39:39;;;;;;;34.13;13.32;;;;;;;;;;5052662;28;20426;-67
2021/08/14 06:42:04;;;;;;;33.20;15.40;;;;;;;;;;5052534;28;20206;-67
2021/08/14 06:44:30;;;;;;;34.90;14.32;;;;;;;;;;5052936;28;20170;-67
2021/08/14 06:46:55;;;;;;;31.80;14.43;;;;;;;;;;5034494;28;20180;-67
2021/08/14 06:49:20;;;;;;;35.80;14.60;;;;;;;;;;5051915;28;20194;-67
2021/08/14 06:51:45;;;;;;;33.03;14.30;;;;;;;;;;5052332;28;20173;-68
2021/08/14 06:54:10;;;;;;;36.25;15.63;;;;;;;;;;5052120;28;20787;-68
2021/08/14 06:56:36;;;;;;;43.28;17.02;;;;;;;;;;5033618;28;20185;-68
2021/08/14 06:59:01;;;;;;;41.15;16.00;;;;;;;;;;5051732;28;20189;-68
2021/08/14 07:01:26;;;;;;;41.65;16.80;;;;;;;;;;5052167;28;20632;-70
2021/08/14 07:03:51;;;;;;;37.67;18.35;;;;;;;;;;5034353;28;20209;-68
2021/08/14 07:06:18;;;;;;;44.83;18.13;;;;;;;;;;5052054;28;20632;-68
2021/08/14 07:08:43;;;;;;;42.92;17.67;;;;;;;;;;5051639;28;20190;-68
2021/08/14 07:11:08;;;;;;;44.47;16.37;;;;;;;;;;5051954;28;20701;-69
2021/08/14 07:13:33;;;;;;;40.23;18.83;;;;;;;;;;5052191;28;20411;-69
2021/08/14 07:15:58;;;;;;;45.33;18.70;;;;;;;;;;5056230;28;20419;-68
2021/08/14 07:18:23;;;;;;;42.38;17.35;;;;;;;;;;5054617;28;20465;-68
2021/08/14 07:20:49;;;;;;;38.83;16.37;;;;;;;;;;5052097;28;20192;-68
2021/08/14 07:23:14;;;;;;;42.17;18.53;;;;;;;;;;5051660;28;20446;-68
2021/08/14 07:25:39;;;;;;;42.05;17.98;;;;;;;;;;5051951;28;20513;-69
2021/08/14 07:28:04;;;;;;;44.23;17.87;;;;;;;;;;5051623;28;20198;-68
2021/08/14 07:30:29;;;;;;;42.97;17.27;;;;;;;;;;5051215;28;20827;-68
2021/08/14 07:32:55;;;;;;;39.88;18.15;;;;;;;;;;5051775;28;20209;-69
2021/08/14 07:35:20;;;;;;;43.72;20.23;;;;;;;;;;5051440;28;20182;-69
2021/08/14 07:37:49;;;;;;;41.78;20.27;;;;;;;;;;5051449;28;20186;-68
2021/08/14 07:40:18;;;;;;;41.75;19.02;;;;;;;;;;5050879;28;20275;-68
2021/08/14 07:42:43;;;;;;;43.70;17.48;;;;;;;;;;5051470;28;20200;-68
2021/08/14 07:45:10;;;;;;;38.07;17.47;;;;;;;;;;5051510;28;20175;-69
2021/08/14 07:47:35;;;;;;;41.72;18.20;;;;;;;;;;5033710;28;20490;-68
2021/08/14 07:50:00;;;;;;;38.22;17.95;;;;;;;;;;5051185;28;20261;-68
2021/08/14 07:52:25;;;;;;;41.83;17.60;;;;;;;;;;5051530;28;20180;-68
2021/08/14 07:54:50;;;;;;;33.53;16.43;;;;;;;;;;5051590;28;20189;-68
2021/08/14 07:57:16;;;;;;;36.03;17.13;;;;;;;;;;5033559;28;20411;-68
2021/08/14 07:59:41;;;;;;;35.07;15.87;;;;;;;;;;5051599;28;20427;-68
2021/08/14 08:02:06;;;;;;;36.77;16.40;;;;;;;;;;5051318;28;20460;-67
2021/08/14 08:04:31;;;;;;;35.00;16.30;;;;;;;;;;5033654;28;20467;-68
2021/08/14 08:06:56;;;;;;;32.20;15.90;;;;;;;;;;5033306;28;20195;-68
2021/08/14 08:09:21;;;;;;;33.63;15.73;;;;;;;;;;5050331;28;20189;-68
2021/08/14 08:11:47;;;;;;;31.52;14.50;;;;;;;;;;5051194;28;20422;-68
2021/08/14 08:14:12;;;;;;;32.10;15.40;;;;;;;;;;5051483;28;20178;-68
2021/08/14 08:16:37;;;;;;;29.93;14.33;;;;;;;;;;5051118;28;20181;-68
2021/08/14 08:19:02;;;;;;;30.55;15.05;;;;;;;;;;5072046;22;20496;-69
2021/08/14 08:21:29;;;;;;;30.55;14.98;;;;;;;;;;5071286;28;20207;-71
2021/08/14 08:23:54;;;;;;;28.48;13.50;;;;;;;;;;5051381;28;20649;-68
2021/08/14 08:26:19;;;;;;;28.52;14.68;;;;;;;;;;5070871;28;20184;-69
2021/08/14 08:28:44;;;;;;;31.27;16.10;;;;;;;;;;5064291;28;20189;-69
2021/08/14 08:31:09;;;;;;;31.33;15.80;;;;;;;;;;5057775;28;20787;-69
2021/08/14 08:33:35;;;;;;;30.50;14.60;;;;;;;;;;5054882;28;20180;-70
2021/08/14 08:36:00;;;;;;;36.20;17.20;;;;;;;;;;5062329;28;20904;-69
2021/08/14 08:38:27;;;;;;;34.85;16.60;;;;;;;;;;5055569;28;20513;-69
2021/08/14 08:40:53;;;;;;;34.92;14.32;;;;;;;;;;5056043;28;20170;-70
2021/08/14 08:43:18;;;;;;;32.28;15.52;;;;;;;;;;5055176;28;20255;-69
2021/08/14 08:45:44;;;;;;;30.13;14.50;;;;;;;;;;5051133;28;20659;-69
2021/08/14 08:48:10;;;;;;;34.97;16.25;;;;;;;;;;5054722;28;20209;-69
2021/08/14 08:50:36;;;;;;;34.88;15.75;;;;;;;;;;5056396;28;20181;-69
2021/08/14 08:53:04;;;;;;;35.83;16.27;;;;;;;;;;5054090;28;20178;-69
2021/08/14 08:55:31;;;;;;;34.72;15.20;;;;;;;;;;5051421;28;20170;-69
2021/08/14 08:57:57;;;;;;;27.65;16.63;;;;;;;;;;5054511;28;20185;-70
2021/08/14 09:00:22;;;;;;;31.02;15.48;;;;;;;;;;5051133;28;20559;-69
2021/08/14 09:03:04;;;;;;;26.88;15.73;;;;;;;;;;5055801;28;20201;-69
2021/08/14 09:05:30;;;;;;;23.08;13.07;;;;;;;;;;5046893;28;20256;-69
2021/08/14 09:08:07;;;;;;;31.17;14.32;;;;;;;;;;5057964;28;20593;-69
2021/08/14 09:10:33;;;;;;;29.45;16.75;;;;;;;;;;5048351;28;20170;-69
2021/08/14 09:13:08;;;;;;;25.92;14.65;;;;;;;;;;5058293;28;20185;-69
2021/08/14 09:15:33;;;;;;;20.10;14.25;;;;;;;;;;5055613;28;20173;-69
2021/08/14 09:18:00;;;;;;;22.05;11.05;;;;;;;;;;5060074;28;20184;-69
2021/08/14 09:20:25;;;;;;;26.02;12.48;;;;;;;;;;5057006;28;20174;-69
2021/08/14 09:23:06;;;;;;;23.63;11.63;;;;;;;;;;5064404;28;20201;-69
2021/08/14 09:25:58;;;;;;;26.08;12.25;;;;;;;;;;5046006;28;20631;-69
2021/08/14 09:28:30;;;;;;;25.67;13.05;;;;;;;;;;5053595;28;20226;-69
2021/08/14 09:30:56;;;;;;;19.60;11.40;;;;;;;;;;5058882;28;20180;-69
2021/08/14 09:33:26;;;;;;;21.52;11.55;;;;;;;;;;5062308;28;20597;-68
2021/08/14 09:35:56;;;;;;;25.00;12.40;;;;;;;;;;5059291;28;20169;-69
2021/08/14 09:38:21;;;;;;;24.48;11.88;;;;;;;;;;5061751;28;20189;-70
2021/08/14 09:40:47;;;;;;;21.33;12.55;;;;;;;;;;5061639;28;20176;-68
2021/08/14 09:43:13;;;;;;;21.27;11.93;;;;;;;;;;5056255;28;20221;-69
2021/08/14 09:45:39;;;;;;;23.23;13.23;;;;;;;;;;5062742;28;20574;-69
2021/08/14 09:48:20;;;;;;;25.65;15.25;;;;;;;;;;5057093;28;20209;-69
2021/08/14 09:50:45;;;;;;;25.95;13.30;;;;;;;;;;5058065;28;20169;-68
2021/08/14 09:53:11;;;;;;;25.73;13.80;;;;;;;;;;5055734;28;20570;-69
2021/08/14 09:55:36;;;;;;;23.48;15.05;;;;;;;;;;5064132;28;20616;-70
2021/08/14 09:58:02;;;;;;;27.08;13.85;;;;;;;;;;5059068;28;20380;-69
2021/08/14 10:00:28;;;;;;;20.83;12.93;;;;;;;;;;5041636;28;20174;-69
2021/08/14 10:02:54;;;;;;;22.25;13.63;;;;;;;;;;5056938;28;20205;-69
2021/08/14 10:05:19;;;;;;;23.23;13.45;;;;;;;;;;5060332;28;20553;-69
2021/08/14 10:07:44;;;;;;;20.30;12.93;;;;;;;;;;5057469;28;20178;-69
2021/08/14 10:10:10;;;;;;;21.77;13.83;;;;;;;;;;5060789;28;20410;-69
2021/08/14 10:12:36;;;;;;;20.05;12.27;;;;;;;;;;5058237;28;20407;-69
2021/08/14 10:15:01;;;;;;;22.88;11.77;;;;;;;;;;5062753;28;20256;-70
2021/08/14 10:17:27;;;;;;;28.52;13.60;;;;;;;;;;5058890;28;20178;-68
2021/08/14 10:19:52;;;;;;;20.02;12.60;;;;;;;;;;5055901;28;20221;-69
2021/08/14 10:22:22;;;;;;;18.67;13.02;;;;;;;;;;5060256;28;20198;-68
2021/08/14 10:24:47;;;;;;;19.58;11.80;;;;;;;;;;5063426;28;20250;-69
2021/08/14 10:27:14;;;;;;;23.17;12.33;;;;;;;;;;5042594;28;20689;-68
2021/08/14 10:29:45;;;;;;;26.33;14.18;;;;;;;;;;5035754;28;20984;-68
2021/08/14 10:32:10;;;;;;;23.00;13.02;;;;;;;;;;5040210;28;20177;-69
2021/08/14 10:34:37;;;;;;;28.45;13.07;;;;;;;;;;5061895;28;20180;-69
2021/08/14 10:37:22;;;;;;;25.65;14.73;;;;;;;;;;5053088;28;20174;-68
2021/08/14 10:39:51;;;;;;;19.85;13.25;;;;;;;;;;5049893;28;20600;-68
2021/08/14 10:42:16;;;;;;;24.00;12.90;;;;;;;;;;5058374;28;20208;-69
2021/08/14 10:44:48;;;;;;;20.77;12.93;;;;;;;;;;5053209;28;20200;-68
2021/08/14 10:47:31;;;;;;;27.55;12.20;;;;;;;;;;5060039;28;20402;-69
2021/08/14 10:49:57;;;;;;;25.70;13.13;;;;;;;;;;5056795;28;20189;-69
2021/08/14 10:52:31;;;;;;;19.02;11.98;;;;;;;;;;5060813;28;20556;-69
2021/08/14 10:54:56;;;;;;;22.17;12.68;;;;;;;;;;5057598;28;20185;-69
2021/08/14 10:57:35;;;;;;;22.17;12.88;;;;;;;;;;5063735;28;20547;-69
2021/08/14 11:00:00;;;;;;;22.30;12.10;;;;;;;;;;5056001;28;20193;-69
2021/08/14 11:02:26;;;;;;;28.00;12.82;;;;;;;;;;5061758;28;20197;-68
2021/08/14 11:04:54;;;;;;;22.80;12.40;;;;;;;;;;5059488;28;20184;-69
2021/08/14 11:07:20;;;;;;;23.85;12.70;;;;;;;;;;5060912;28;20588;-68
2021/08/14 11:09:45;;;;;;;22.98;11.57;;;;;;;;;;5059288;28;20193;-70
2021/08/14 11:12:10;;;;;;;28.48;11.38;;;;;;;;;;5058983;28;20655;-69
2021/08/14 11:14:43;;;;;;;20.23;12.02;;;;;;;;;;5061283;28;20425;-70
2021/08/14 11:17:08;;;;;;;18.25;9.70;;;;;;;;;;5058365;28;20232;-70
2021/08/14 11:19:53;;;;;;;17.42;9.77;;;;;;;;;;5055182;28;20707;-71
2021/08/14 11:22:31;;;;;;;18.23;9.45;;;;;;;;;;5060312;28;20255;-69
2021/08/14 11:24:58;;;;;;;19.83;9.38;;;;;;;;;;5059040;28;20223;-69
2021/08/14 11:27:25;;;;;;;18.48;9.20;;;;;;;;;;5051801;28;20541;-69
2021/08/14 11:29:51;;;;;;;17.80;8.85;;;;;;;;;;5050248;28;20197;-68
2021/08/14 11:32:16;;;;;;;19.88;8.57;;;;;;;;;;5060457;28;20182;-70
2021/08/14 11:34:43;;;;;;;22.60;9.02;;;;;;;;;;5057056;28;20725;-68
2021/08/14 11:37:09;;;;;;;15.82;7.95;;;;;;;;;;5063334;28;20173;-69
2021/08/14 11:39:34;;;;;;;15.68;7.93;;;;;;;;;;5058138;28;20196;-69
2021/08/14 11:41:59;;;;;;;21.95;8.20;;;;;;;;;;5057468;28;20184;-70
2021/08/14 11:44:27;;;;;;;19.57;8.77;;;;;;;;;;5059084;28;20219;-69
2021/08/14 11:47:00;;;;;;;20.98;8.68;;;;;;;;;;5059125;28;20898;-70
2021/08/14 11:49:25;;;;;;;13.95;7.13;;;;;;;;;;5044233;28;20221;-69
2021/08/14 11:52:00;;;;;;;17.07;6.90;;;;;;;;;;5060785;28;20201;-69
2021/08/14 11:54:28;;;;;;;13.07;6.60;;;;;;;;;;5046932;28;20398;-69
2021/08/14 11:56:53;;;;;;;13.63;6.57;;;;;;;;;;5063553;28;20634;-69
2021/08/14 11:59:29;;;;;;;14.17;6.03;;;;;;;;;;5055162;28;20201;-70
2021/08/14 12:01:54;;;;;;;14.57;6.82;;;;;;;;;;5056053;28;20402;-70
2021/08/14 12:04:19;;;;;;;13.47;6.07;;;;;;;;;;5057916;28;20690;-69
2021/08/14 12:06:53;;;;;;;11.82;5.85;;;;;;;;;;5041086;28;20253;-70
2021/08/14 12:09:19;;;;;;;22.20;5.90;;;;;;;;;;5056720;28;20211;-70
2021/08/14 12:11:44;;;;;;;11.35;4.32;;;;;;;;;;5054937;28;20658;-69
2021/08/14 12:14:13;;;;;;;10.98;4.75;;;;;;;;;;5059695;28;20173;-71
2021/08/14 12:16:39;;;;;;;8.80;3.78;;;;;;;;;;5056303;28;20651;-69
2021/08/14 12:19:10;;;;;;;7.53;3.80;;;;;;;;;;5061851;28;20689;-69
2021/08/14 12:21:36;;;;;;;7.70;3.60;;;;;;;;;;5051306;28;20166;-70
2021/08/14 12:24:03;;;;;;;9.45;4.25;;;;;;;;;;5053610;28;20226;-70
2021/08/14 12:26:28;;;;;;;12.38;4.55;;;;;;;;;;5039214;28;20752;-70
2021/08/14 12:29:04;;;;;;;10.63;3.80;;;;;;;;;;5050088;28;20292;-70
2021/08/14 12:31:30;;;;;;;9.10;4.65;;;;;;;;;;5051010;28;20169;-69
2021/08/14 12:33:56;;;;;;;6.90;3.00;;;;;;;;;;5054843;28;20672;-70
2021/08/14 12:36:32;;;;;;;9.93;4.05;;;;;;;;;;5059114;28;20177;-69
2021/08/14 12:38:57;;;;;;;9.82;3.60;;;;;;;;;;5057030;28;20275;-70
2021/08/14 12:41:22;;;;;;;11.23;4.35;;;;;;;;;;5059149;28;20264;-69
2021/08/14 12:43:49;;;;;;;9.50;3.77;;;;;;;;;;5053303;28;20308;-70
2021/08/14 12:46:18;;;;;;;12.25;4.10;;;;;;;;;;5051469;28;20464;-69
2021/08/14 12:49:03;;;;;;;7.22;3.78;;;;;;;;;;5036375;28;20193;-69
2021/08/14 12:51:28;;;;;;;8.15;3.65;;;;;;;;;;5051100;28;20642;-70
2021/08/14 12:53:53;;;;;;;7.73;3.63;;;;;;;;;;5058049;28;20177;-69
2021/08/14 12:56:18;;;;;;;6.57;3.87;;;;;;;;;;5063447;28;20401;-70
2021/08/14 12:58:43;;;;;;;10.60;3.80;;;;;;;;;;5059768;28;20516;-68
2021/08/14 13:01:08;;;;;;;8.03;3.33;;;;;;;;;;5063732;28;20173;-68
2021/08/14 13:03:34;;;;;;;8.60;3.42;;;;;;;;;;5060662;28;20582;-68
2021/08/14 13:05:59;;;;;;;6.17;3.40;;;;;;;;;;5058574;28;20202;-69
2021/08/14 13:08:24;;;;;;;6.43;3.43;;;;;;;;;;5060750;28;20197;-67
2021/08/14 13:10:49;;;;;;;8.03;3.50;;;;;;;;;;5060726;28;20173;-68
2021/08/14 13:13:14;;;;;;;7.43;3.10;;;;;;;;;;5043709;28;20934;-68
2021/08/14 13:15:40;;;;;;;6.63;2.75;;;;;;;;;;5063518;28;20446;-71
2021/08/14 13:18:05;;;;;;;9.07;3.30;;;;;;;;;;5041601;28;20205;-69
2021/08/14 13:20:30;;;;;;;6.83;3.33;;;;;;;;;;5053684;28;20807;-75
2021/08/14 13:22:56;;;;;;;8.25;3.20;;;;;;;;;;5061551;28;20469;-69
2021/08/14 13:25:25;;;;;;;5.90;2.90;;;;;;;;;;5050512;28;20209;-66
2021/08/14 13:27:50;;;;;;;7.03;3.47;;;;;;;;;;5050499;28;20240;-67
2021/08/14 13:30:19;;;;;;;7.15;3.00;;;;;;;;;;5029830;28;20660;-70
2021/08/14 13:32:45;;;;;;;8.23;3.75;;;;;;;;;;5053009;28;20189;-70
2021/08/14 13:35:11;;;;;;;5.93;3.22;;;;;;;;;;5055178;28;20339;-69
2021/08/14 13:37:36;;;;;;;9.35;3.80;;;;;;;;;;5038969;28;20288;-71
2021/08/14 13:40:02;;;;;;;7.75;3.33;;;;;;;;;;5058162;28;20198;-71
2021/08/14 13:42:27;;;;;;;6.68;3.40;;;;;;;;;;5062094;28;20202;-69
2021/08/14 13:44:53;;;;;;;5.60;3.00;;;;;;;;;;5040319;28;20251;-69
2021/08/14 13:47:18;;;;;;;5.43;2.35;;;;;;;;;;5063538;28;20217;-69
2021/08/14 13:49:43;;;;;;;3.63;2.13;;;;;;;;;;5053192;28;20570;-69
2021/08/14 13:52:09;;;;;;;4.80;2.30;;;;;;;;;;5061449;28;20234;-69
2021/08/14 13:54:34;;;;;;;7.40;2.60;;;;;;;;;;5057230;28;20239;-69
2021/08/14 13:56:59;;;;;;;4.47;2.60;;;;;;;;;;5060525;28;20395;-69
2021/08/14 13:59:24;;;;;;;5.30;2.50;;;;;;;;;;5059815;28;20193;-70
2021/08/14 14:01:49;;;;;;;5.20;2.75;;;;;;;;;;5063028;28;20410;-70
2021/08/14 14:04:15;;;;;;;6.63;4.28;;;;;;;;;;5057939;28;20205;-70
2021/08/14 14:06:40;;;;;;;7.77;3.40;;;;;;;;;;5053606;28;20201;-69
2021/08/14 14:09:05;;;;;;;8.10;4.07;;;;;;;;;;5051546;28;20197;-71
2021/08/14 14:11:30;;;;;;;5.90;3.27;;;;;;;;;;5057971;28;20220;-69
2021/08/14 14:13:55;;;;;;;6.82;2.60;;;;;;;;;;5063207;28;20195;-68
2021/08/14 14:16:21;;;;;;;5.33;2.70;;;;;;;;;;5054280;28;20189;-69
2021/08/14 14:18:46;;;;;;;4.88;2.53;;;;;;;;;;5072423;22;20369;-69
2021/08/14 14:21:11;;;;;;;5.20;2.33;;;;;;;;;;5071341;28;20219;-68